sensor_id;sensor_type;location;lat;lon;timestamp;temperature;humidity
30148;DHT22;16960;49.404;8.248;2023-07-20T00:01:33;23.30;41.90
30148;DHT22;16960;49.404;8.248;2023-07-20T00:04:00;23.30;41.90
30148;DHT22;16960;49.404;8.248;2023-07-20T00:06:27;23.30;41.90
30148;DHT22;16960;49.404;8.248;2023-07-20T00:08:55;23.30;41.80
30148;DHT22;16960;49.404;8.248;2023-07-20T00:11:27;23.20;41.90
30148;DHT22;16960;49.404;8.248;2023-07-20T00:13:54;23.20;42.00
30148;DHT22;16960;49.404;8.248;2023-07-20T00:16:21;23.20;42.00
30148;DHT22;16960;49.404;8.248;2023-07-20T00:18:47;23.30;42.10
30148;DHT22;16960;49.404;8.248;2023-07-20T00:21:14;23.20;42.00
30148;DHT22;16960;49.404;8.248;2023-07-20T00:23:41;23.20;42.10
30148;DHT22;16960;49.404;8.248;2023-07-20T00:26:09;23.20;42.10
30148;DHT22;16960;49.404;8.248;2023-07-20T00:28:39;23.20;41.90
30148;DHT22;16960;49.404;8.248;2023-07-20T00:31:06;23.20;42.00
30148;DHT22;16960;49.404;8.248;2023-07-20T00:33:33;23.20;42.10
30148;DHT22;16960;49.404;8.248;2023-07-20T00:36:00;23.20;42.20
30148;DHT22;16960;49.404;8.248;2023-07-20T00:38:27;23.30;42.40
30148;DHT22;16960;49.404;8.248;2023-07-20T00:40:54;23.30;42.30
30148;DHT22;16960;49.404;8.248;2023-07-20T00:43:23;23.30;42.30
30148;DHT22;16960;49.404;8.248;2023-07-20T00:45:50;23.30;42.10
30148;DHT22;16960;49.404;8.248;2023-07-20T00:48:17;23.30;42.10
30148;DHT22;16960;49.404;8.248;2023-07-20T00:50:45;23.30;42.10
30148;DHT22;16960;49.404;8.248;2023-07-20T00:53:14;23.30;42.10
30148;DHT22;16960;49.404;8.248;2023-07-20T00:55:41;23.30;42.20
30148;DHT22;16960;49.404;8.248;2023-07-20T00:58:08;23.30;42.10
30148;DHT22;16960;49.404;8.248;2023-07-20T01:00:37;23.30;42.10
30148;DHT22;16960;49.404;8.248;2023-07-20T01:03:03;23.20;42.00
30148;DHT22;16960;49.404;8.248;2023-07-20T01:05:38;23.20;42.20
30148;DHT22;16960;49.404;8.248;2023-07-20T01:08:11;23.20;42.20
30148;DHT22;16960;49.404;8.248;2023-07-20T01:10:41;23.20;42.30
30148;DHT22;16960;49.404;8.248;2023-07-20T01:13:10;23.20;42.30
30148;DHT22;16960;49.404;8.248;2023-07-20T01:15:41;23.20;42.40
30148;DHT22;16960;49.404;8.248;2023-07-20T01:18:08;23.20;42.30
30148;DHT22;16960;49.404;8.248;2023-07-20T01:20:36;23.20;42.30
30148;DHT22;16960;49.404;8.248;2023-07-20T01:23:27;23.20;42.50
30148;DHT22;16960;49.404;8.248;2023-07-20T01:26:07;23.20;42.60
30148;DHT22;16960;49.404;8.248;2023-07-20T01:29:11;23.10;42.50
30148;DHT22;16960;49.404;8.248;2023-07-20T01:31:41;23.20;42.50
30148;DHT22;16960;49.404;8.248;2023-07-20T01:34:12;23.20;42.40
30148;DHT22;16960;49.404;8.248;2023-07-20T01:36:42;23.20;42.50
30148;DHT22;16960;49.404;8.248;2023-07-20T01:39:10;23.20;42.50
30148;DHT22;16960;49.404;8.248;2023-07-20T01:41:37;23.10;42.50
30148;DHT22;16960;49.404;8.248;2023-07-20T01:44:07;23.10;42.60
30148;DHT22;16960;49.404;8.248;2023-07-20T01:46:35;23.00;42.70
30148;DHT22;16960;49.404;8.248;2023-07-20T01:49:03;23.00;42.70
30148;DHT22;16960;49.404;8.248;2023-07-20T01:51:30;22.90;42.80
30148;DHT22;16960;49.404;8.248;2023-07-20T01:53:57;22.90;43.00
30148;DHT22;16960;49.404;8.248;2023-07-20T01:56:23;22.90;43.10
30148;DHT22;16960;49.404;8.248;2023-07-20T01:58:50;22.80;43.00
30148;DHT22;16960;49.404;8.248;2023-07-20T02:01:17;22.80;43.10
30148;DHT22;16960;49.404;8.248;2023-07-20T02:03:44;22.80;43.20
30148;DHT22;16960;49.404;8.248;2023-07-20T02:06:12;22.80;43.20
30148;DHT22;16960;49.404;8.248;2023-07-20T02:08:39;22.90;43.30
30148;DHT22;16960;49.404;8.248;2023-07-20T02:11:06;22.90;43.20
30148;DHT22;16960;49.404;8.248;2023-07-20T02:13:35;22.90;43.20
30148;DHT22;16960;49.404;8.248;2023-07-20T02:16:02;23.00;43.20
30148;DHT22;16960;49.404;8.248;2023-07-20T02:18:29;23.00;43.00
30148;DHT22;16960;49.404;8.248;2023-07-20T02:20:56;23.10;43.10
30148;DHT22;16960;49.404;8.248;2023-07-20T02:23:25;23.10;43.10
30148;DHT22;16960;49.404;8.248;2023-07-20T02:25:51;23.10;43.10
30148;DHT22;16960;49.404;8.248;2023-07-20T02:28:18;23.10;43.00
30148;DHT22;16960;49.404;8.248;2023-07-20T02:30:45;23.20;43.00
30148;DHT22;16960;49.404;8.248;2023-07-20T02:33:12;23.20;43.00
30148;DHT22;16960;49.404;8.248;2023-07-20T02:35:40;23.20;43.00
30148;DHT22;16960;49.404;8.248;2023-07-20T02:38:07;23.20;43.00
30148;DHT22;16960;49.404;8.248;2023-07-20T02:40:35;23.20;42.90
30148;DHT22;16960;49.404;8.248;2023-07-20T02:43:02;23.20;42.90
30148;DHT22;16960;49.404;8.248;2023-07-20T02:45:29;23.20;42.90
30148;DHT22;16960;49.404;8.248;2023-07-20T02:47:56;23.20;42.90
30148;DHT22;16960;49.404;8.248;2023-07-20T02:50:23;23.20;42.90
30148;DHT22;16960;49.404;8.248;2023-07-20T02:52:50;23.20;42.90
30148;DHT22;16960;49.404;8.248;2023-07-20T02:55:17;23.20;42.90
30148;DHT22;16960;49.404;8.248;2023-07-20T02:57:46;23.20;42.80
30148;DHT22;16960;49.404;8.248;2023-07-20T03:00:13;23.20;42.80
30148;DHT22;16960;49.404;8.248;2023-07-20T03:02:42;23.20;42.80
30148;DHT22;16960;49.404;8.248;2023-07-20T03:05:09;23.30;42.90
30148;DHT22;16960;49.404;8.248;2023-07-20T03:07:36;23.30;42.90
30148;DHT22;16960;49.404;8.248;2023-07-20T03:10:03;23.20;42.80
30148;DHT22;16960;49.404;8.248;2023-07-20T03:12:32;23.20;42.60
30148;DHT22;16960;49.404;8.248;2023-07-20T03:15:01;23.20;42.70
30148;DHT22;16960;49.404;8.248;2023-07-20T03:17:28;23.20;42.80
30148;DHT22;16960;49.404;8.248;2023-07-20T03:19:55;23.20;42.80
30148;DHT22;16960;49.404;8.248;2023-07-20T03:22:22;23.20;42.80
30148;DHT22;16960;49.404;8.248;2023-07-20T03:24:50;23.20;42.80
30148;DHT22;16960;49.404;8.248;2023-07-20T03:27:17;23.10;43.00
30148;DHT22;16960;49.404;8.248;2023-07-20T03:29:44;23.00;43.00
30148;DHT22;16960;49.404;8.248;2023-07-20T03:32:13;23.00;43.00
30148;DHT22;16960;49.404;8.248;2023-07-20T03:34:40;23.00;43.10
30148;DHT22;16960;49.404;8.248;2023-07-20T03:37:07;23.00;43.10
30148;DHT22;16960;49.404;8.248;2023-07-20T03:39:34;23.00;43.80
30148;DHT22;16960;49.404;8.248;2023-07-20T03:42:01;22.90;43.10
30148;DHT22;16960;49.404;8.248;2023-07-20T03:44:28;23.00;43.20
30148;DHT22;16960;49.404;8.248;2023-07-20T03:46:55;22.90;43.30
30148;DHT22;16960;49.404;8.248;2023-07-20T03:49:23;22.90;43.30
30148;DHT22;16960;49.404;8.248;2023-07-20T03:51:50;22.90;43.40
30148;DHT22;16960;49.404;8.248;2023-07-20T03:54:17;22.90;43.50
30148;DHT22;16960;49.404;8.248;2023-07-20T03:56:44;22.90;43.50
30148;DHT22;16960;49.404;8.248;2023-07-20T03:59:12;22.80;43.50
30148;DHT22;16960;49.404;8.248;2023-07-20T04:01:39;22.80;43.60
30148;DHT22;16960;49.404;8.248;2023-07-20T04:04:07;22.80;43.60
30148;DHT22;16960;49.404;8.248;2023-07-20T04:06:35;22.70;43.70
30148;DHT22;16960;49.404;8.248;2023-07-20T04:09:03;22.70;43.80
30148;DHT22;16960;49.404;8.248;2023-07-20T04:11:30;22.70;43.80
30148;DHT22;16960;49.404;8.248;2023-07-20T04:13:57;22.70;43.80
30148;DHT22;16960;49.404;8.248;2023-07-20T04:16:24;22.70;43.90
30148;DHT22;16960;49.404;8.248;2023-07-20T04:18:51;22.70;43.80
30148;DHT22;16960;49.404;8.248;2023-07-20T04:21:18;22.70;43.90
30148;DHT22;16960;49.404;8.248;2023-07-20T04:23:46;22.70;43.80
30148;DHT22;16960;49.404;8.248;2023-07-20T04:26:13;22.70;44.50
30148;DHT22;16960;49.404;8.248;2023-07-20T04:28:40;22.70;44.00
30148;DHT22;16960;49.404;8.248;2023-07-20T04:31:12;22.60;44.00
30148;DHT22;16960;49.404;8.248;2023-07-20T04:33:39;22.60;44.10
30148;DHT22;16960;49.404;8.248;2023-07-20T04:36:06;22.50;44.20
30148;DHT22;16960;49.404;8.248;2023-07-20T04:38:34;22.50;44.40
30148;DHT22;16960;49.404;8.248;2023-07-20T04:41:02;22.50;44.60
30148;DHT22;16960;49.404;8.248;2023-07-20T04:43:29;22.40;44.80
30148;DHT22;16960;49.404;8.248;2023-07-20T04:45:56;22.30;44.90
30148;DHT22;16960;49.404;8.248;2023-07-20T04:48:24;22.30;45.00
30148;DHT22;16960;49.404;8.248;2023-07-20T04:50:50;22.20;45.00
30148;DHT22;16960;49.404;8.248;2023-07-20T04:53:17;22.30;45.20
30148;DHT22;16960;49.404;8.248;2023-07-20T04:55:48;22.30;45.40
30148;DHT22;16960;49.404;8.248;2023-07-20T04:58:19;22.20;45.50
30148;DHT22;16960;49.404;8.248;2023-07-20T05:00:47;22.10;45.70
30148;DHT22;16960;49.404;8.248;2023-07-20T05:03:14;22.10;45.90
30148;DHT22;16960;49.404;8.248;2023-07-20T05:05:41;22.10;46.00
30148;DHT22;16960;49.404;8.248;2023-07-20T05:08:08;22.10;46.00
30148;DHT22;16960;49.404;8.248;2023-07-20T05:10:35;22.00;45.90
30148;DHT22;16960;49.404;8.248;2023-07-20T05:13:02;22.00;46.20
30148;DHT22;16960;49.404;8.248;2023-07-20T05:15:32;22.00;46.30
30148;DHT22;16960;49.404;8.248;2023-07-20T05:17:59;22.00;46.40
30148;DHT22;16960;49.404;8.248;2023-07-20T05:20:26;21.90;46.50
30148;DHT22;16960;49.404;8.248;2023-07-20T05:22:53;21.90;46.50
30148;DHT22;16960;49.404;8.248;2023-07-20T05:25:20;21.90;46.70
30148;DHT22;16960;49.404;8.248;2023-07-20T05:27:48;21.80;46.70
30148;DHT22;16960;49.404;8.248;2023-07-20T05:30:16;21.80;46.80
30148;DHT22;16960;49.404;8.248;2023-07-20T05:32:44;21.80;46.80
30148;DHT22;16960;49.404;8.248;2023-07-20T05:35:13;21.70;47.00
30148;DHT22;16960;49.404;8.248;2023-07-20T05:37:42;21.70;47.00
30148;DHT22;16960;49.404;8.248;2023-07-20T05:40:09;21.80;47.20
30148;DHT22;16960;49.404;8.248;2023-07-20T05:42:37;21.80;47.10
30148;DHT22;16960;49.404;8.248;2023-07-20T05:45:05;21.80;47.10
30148;DHT22;16960;49.404;8.248;2023-07-20T05:47:32;21.80;47.10
30148;DHT22;16960;49.404;8.248;2023-07-20T05:50:01;21.70;47.30
30148;DHT22;16960;49.404;8.248;2023-07-20T05:52:29;21.70;47.60
30148;DHT22;16960;49.404;8.248;2023-07-20T05:54:56;21.70;47.70
30148;DHT22;16960;49.404;8.248;2023-07-20T05:57:23;21.60;47.80
30148;DHT22;16960;49.404;8.248;2023-07-20T05:59:50;21.60;48.00
30148;DHT22;16960;49.404;8.248;2023-07-20T06:02:17;21.60;48.30
30148;DHT22;16960;49.404;8.248;2023-07-20T06:04:44;21.50;48.50
30148;DHT22;16960;49.404;8.248;2023-07-20T06:07:13;21.50;48.40
30148;DHT22;16960;49.404;8.248;2023-07-20T06:09:39;21.40;48.60
30148;DHT22;16960;49.404;8.248;2023-07-20T06:12:07;21.40;48.60
30148;DHT22;16960;49.404;8.248;2023-07-20T06:14:34;21.40;48.70
30148;DHT22;16960;49.404;8.248;2023-07-20T06:17:01;21.30;48.90
30148;DHT22;16960;49.404;8.248;2023-07-20T06:19:28;21.30;49.00
30148;DHT22;16960;49.404;8.248;2023-07-20T06:21:55;21.30;49.20
30148;DHT22;16960;49.404;8.248;2023-07-20T06:24:23;21.30;49.10
30148;DHT22;16960;49.404;8.248;2023-07-20T06:26:50;21.20;49.20
30148;DHT22;16960;49.404;8.248;2023-07-20T06:29:17;21.20;49.20
30148;DHT22;16960;49.404;8.248;2023-07-20T06:31:44;21.20;49.30
30148;DHT22;16960;49.404;8.248;2023-07-20T06:34:11;21.20;49.40
30148;DHT22;16960;49.404;8.248;2023-07-20T06:36:38;21.20;49.30
30148;DHT22;16960;49.404;8.248;2023-07-20T06:39:05;21.20;49.50
30148;DHT22;16960;49.404;8.248;2023-07-20T06:41:33;21.20;49.60
30148;DHT22;16960;49.404;8.248;2023-07-20T06:44:00;21.10;49.50
30148;DHT22;16960;49.404;8.248;2023-07-20T06:46:27;21.10;49.70
30148;DHT22;16960;49.404;8.248;2023-07-20T06:48:54;21.10;49.70
30148;DHT22;16960;49.404;8.248;2023-07-20T06:51:22;21.10;49.50
30148;DHT22;16960;49.404;8.248;2023-07-20T06:53:49;21.10;49.20
30148;DHT22;16960;49.404;8.248;2023-07-20T06:56:16;21.20;49.20
30148;DHT22;16960;49.404;8.248;2023-07-20T06:58:44;21.20;49.20
30148;DHT22;16960;49.404;8.248;2023-07-20T07:01:11;21.20;49.20
30148;DHT22;16960;49.404;8.248;2023-07-20T07:03:38;21.20;49.10
30148;DHT22;16960;49.404;8.248;2023-07-20T07:06:05;21.20;49.00
30148;DHT22;16960;49.404;8.248;2023-07-20T07:08:32;21.20;49.50
30148;DHT22;16960;49.404;8.248;2023-07-20T07:10:59;21.20;49.60
30148;DHT22;16960;49.404;8.248;2023-07-20T07:13:26;21.20;49.60
30148;DHT22;16960;49.404;8.248;2023-07-20T07:15:54;21.20;49.40
30148;DHT22;16960;49.404;8.248;2023-07-20T07:18:22;21.20;49.50
30148;DHT22;16960;49.404;8.248;2023-07-20T07:20:51;21.20;49.60
30148;DHT22;16960;49.404;8.248;2023-07-20T07:23:18;21.20;49.40
30148;DHT22;16960;49.404;8.248;2023-07-20T07:25:45;21.20;49.50
30148;DHT22;16960;49.404;8.248;2023-07-20T07:28:12;21.30;49.60
30148;DHT22;16960;49.404;8.248;2023-07-20T07:30:39;21.30;49.00
30148;DHT22;16960;49.404;8.248;2023-07-20T07:33:08;21.30;48.70
30148;DHT22;16960;49.404;8.248;2023-07-20T07:35:35;21.30;48.70
30148;DHT22;16960;49.404;8.248;2023-07-20T07:38:02;21.20;48.60
30148;DHT22;16960;49.404;8.248;2023-07-20T07:40:29;21.20;48.60
30148;DHT22;16960;49.404;8.248;2023-07-20T07:42:56;21.20;48.40
30148;DHT22;16960;49.404;8.248;2023-07-20T07:45:23;21.30;48.10
30148;DHT22;16960;49.404;8.248;2023-07-20T07:47:50;21.30;47.90
30148;DHT22;16960;49.404;8.248;2023-07-20T07:50:18;21.30;48.00
30148;DHT22;16960;49.404;8.248;2023-07-20T07:52:45;21.30;47.90
30148;DHT22;16960;49.404;8.248;2023-07-20T07:55:12;21.30;47.80
30148;DHT22;16960;49.404;8.248;2023-07-20T07:57:41;21.40;47.70
30148;DHT22;16960;49.404;8.248;2023-07-20T08:00:09;21.40;47.70
30148;DHT22;16960;49.404;8.248;2023-07-20T08:02:40;21.40;47.60
30148;DHT22;16960;49.404;8.248;2023-07-20T08:05:08;21.50;47.50
30148;DHT22;16960;49.404;8.248;2023-07-20T08:07:37;21.60;47.30
30148;DHT22;16960;49.404;8.248;2023-07-20T08:10:04;21.60;47.20
30148;DHT22;16960;49.404;8.248;2023-07-20T08:12:31;21.70;47.10
30148;DHT22;16960;49.404;8.248;2023-07-20T08:14:58;21.70;47.00
30148;DHT22;16960;49.404;8.248;2023-07-20T08:17:25;21.70;47.00
30148;DHT22;16960;49.404;8.248;2023-07-20T08:19:52;21.80;47.00
30148;DHT22;16960;49.404;8.248;2023-07-20T08:22:19;21.80;46.90
30148;DHT22;16960;49.404;8.248;2023-07-20T08:24:47;21.90;46.80
30148;DHT22;16960;49.404;8.248;2023-07-20T08:27:14;21.90;46.80
30148;DHT22;16960;49.404;8.248;2023-07-20T08:29:41;21.90;46.60
30148;DHT22;16960;49.404;8.248;2023-07-20T08:32:08;21.90;46.50
30148;DHT22;16960;49.404;8.248;2023-07-20T08:34:35;22.00;46.50
30148;DHT22;16960;49.404;8.248;2023-07-20T08:37:02;22.00;46.50
30148;DHT22;16960;49.404;8.248;2023-07-20T08:39:29;22.10;46.50
30148;DHT22;16960;49.404;8.248;2023-07-20T08:41:59;22.10;46.40
30148;DHT22;16960;49.404;8.248;2023-07-20T08:44:30;22.10;46.40
30148;DHT22;16960;49.404;8.248;2023-07-20T08:46:59;22.20;46.30
30148;DHT22;16960;49.404;8.248;2023-07-20T08:49:28;22.20;46.30
30148;DHT22;16960;49.404;8.248;2023-07-20T08:51:56;22.20;46.20
30148;DHT22;16960;49.404;8.248;2023-07-20T08:54:25;22.20;46.20
30148;DHT22;16960;49.404;8.248;2023-07-20T08:56:58;22.30;46.20
30148;DHT22;16960;49.404;8.248;2023-07-20T08:59:29;22.30;46.10
30148;DHT22;16960;49.404;8.248;2023-07-20T09:01:56;22.30;46.00
30148;DHT22;16960;49.404;8.248;2023-07-20T09:04:24;22.40;46.00
30148;DHT22;16960;49.404;8.248;2023-07-20T09:06:51;22.40;46.00
30148;DHT22;16960;49.404;8.248;2023-07-20T09:09:18;22.40;45.90
30148;DHT22;16960;49.404;8.248;2023-07-20T09:11:47;22.40;45.90
30148;DHT22;16960;49.404;8.248;2023-07-20T09:14:15;22.40;45.80
30148;DHT22;16960;49.404;8.248;2023-07-20T09:16:49;22.40;45.80
30148;DHT22;16960;49.404;8.248;2023-07-20T09:19:17;22.50;45.90
30148;DHT22;16960;49.404;8.248;2023-07-20T09:21:44;22.50;46.20
30148;DHT22;16960;49.404;8.248;2023-07-20T09:24:12;22.60;46.10
30148;DHT22;16960;49.404;8.248;2023-07-20T09:26:43;22.60;47.00
30148;DHT22;16960;49.404;8.248;2023-07-20T09:29:11;22.60;46.90
30148;DHT22;16960;49.404;8.248;2023-07-20T09:31:39;22.70;47.00
30148;DHT22;16960;49.404;8.248;2023-07-20T09:34:07;22.70;46.90
30148;DHT22;16960;49.404;8.248;2023-07-20T09:36:34;22.80;46.70
30148;DHT22;16960;49.404;8.248;2023-07-20T09:39:03;22.80;46.70
30148;DHT22;16960;49.404;8.248;2023-07-20T09:41:39;22.80;46.50
30148;DHT22;16960;49.404;8.248;2023-07-20T09:44:07;22.90;46.50
30148;DHT22;16960;49.404;8.248;2023-07-20T09:46:44;22.90;46.40
30148;DHT22;16960;49.404;8.248;2023-07-20T09:49:11;23.00;46.20
30148;DHT22;16960;49.404;8.248;2023-07-20T09:51:38;23.00;46.10
30148;DHT22;16960;49.404;8.248;2023-07-20T09:54:05;23.00;46.20
30148;DHT22;16960;49.404;8.248;2023-07-20T09:56:33;23.10;46.00
30148;DHT22;16960;49.404;8.248;2023-07-20T09:59:01;23.10;46.00
30148;DHT22;16960;49.404;8.248;2023-07-20T10:01:29;23.10;45.90
30148;DHT22;16960;49.404;8.248;2023-07-20T10:03:58;23.20;45.90
30148;DHT22;16960;49.404;8.248;2023-07-20T10:06:28;23.20;45.80
30148;DHT22;16960;49.404;8.248;2023-07-20T10:09:01;23.20;45.70
30148;DHT22;16960;49.404;8.248;2023-07-20T10:11:31;23.30;45.70
30148;DHT22;16960;49.404;8.248;2023-07-20T10:13:59;23.30;45.60
30148;DHT22;16960;49.404;8.248;2023-07-20T10:16:29;23.30;45.40
30148;DHT22;16960;49.404;8.248;2023-07-20T10:19:03;23.40;45.40
30148;DHT22;16960;49.404;8.248;2023-07-20T10:21:33;23.40;45.30
30148;DHT22;16960;49.404;8.248;2023-07-20T10:24:01;23.40;45.20
30148;DHT22;16960;49.404;8.248;2023-07-20T10:26:29;23.50;45.20
30148;DHT22;16960;49.404;8.248;2023-07-20T10:28:57;23.50;45.10
30148;DHT22;16960;49.404;8.248;2023-07-20T10:31:25;23.50;45.10
30148;DHT22;16960;49.404;8.248;2023-07-20T10:33:55;23.50;45.00
30148;DHT22;16960;49.404;8.248;2023-07-20T10:36:26;23.60;44.90
30148;DHT22;16960;49.404;8.248;2023-07-20T10:38:55;23.60;44.90
30148;DHT22;16960;49.404;8.248;2023-07-20T10:41:28;23.60;44.80
30148;DHT22;16960;49.404;8.248;2023-07-20T10:43:58;23.60;44.80
30148;DHT22;16960;49.404;8.248;2023-07-20T10:46:48;23.70;44.80
30148;DHT22;16960;49.404;8.248;2023-07-20T10:49:15;23.70;44.80
30148;DHT22;16960;49.404;8.248;2023-07-20T10:51:45;23.70;44.80
30148;DHT22;16960;49.404;8.248;2023-07-20T10:54:46;23.70;44.90
30148;DHT22;16960;49.404;8.248;2023-07-20T10:57:30;23.80;44.80
30148;DHT22;16960;49.404;8.248;2023-07-20T11:00:09;23.80;44.70
30148;DHT22;16960;49.404;8.248;2023-07-20T11:02:44;23.80;44.60
30148;DHT22;16960;49.404;8.248;2023-07-20T11:05:33;23.80;44.60
30148;DHT22;16960;49.404;8.248;2023-07-20T11:08:04;23.90;44.50
30148;DHT22;16960;49.404;8.248;2023-07-20T11:10:32;23.90;44.50
30148;DHT22;16960;49.404;8.248;2023-07-20T11:13:19;23.90;44.40
30148;DHT22;16960;49.404;8.248;2023-07-20T11:15:53;23.90;44.40
30148;DHT22;16960;49.404;8.248;2023-07-20T11:18:28;23.90;44.50
30148;DHT22;16960;49.404;8.248;2023-07-20T11:20:56;24.00;44.40
30148;DHT22;16960;49.404;8.248;2023-07-20T11:23:24;24.00;44.40
30148;DHT22;16960;49.404;8.248;2023-07-20T11:25:52;24.00;44.30
30148;DHT22;16960;49.404;8.248;2023-07-20T11:28:19;24.10;44.40
30148;DHT22;16960;49.404;8.248;2023-07-20T11:30:52;24.10;44.30
30148;DHT22;16960;49.404;8.248;2023-07-20T11:33:20;24.10;44.30
30148;DHT22;16960;49.404;8.248;2023-07-20T11:35:48;24.20;44.30
30148;DHT22;16960;49.404;8.248;2023-07-20T11:38:16;24.20;44.20
30148;DHT22;16960;49.404;8.248;2023-07-20T11:40:45;24.20;44.20
30148;DHT22;16960;49.404;8.248;2023-07-20T11:43:13;24.30;44.30
30148;DHT22;16960;49.404;8.248;2023-07-20T11:45:40;24.30;44.20
30148;DHT22;16960;49.404;8.248;2023-07-20T11:48:07;24.30;44.10
30148;DHT22;16960;49.404;8.248;2023-07-20T11:50:38;24.30;44.10
30148;DHT22;16960;49.404;8.248;2023-07-20T11:53:06;24.40;44.10
30148;DHT22;16960;49.404;8.248;2023-07-20T11:55:34;24.40;44.00
30148;DHT22;16960;49.404;8.248;2023-07-20T11:58:03;24.40;44.00
30148;DHT22;16960;49.404;8.248;2023-07-20T12:00:30;24.40;44.00
30148;DHT22;16960;49.404;8.248;2023-07-20T12:02:57;24.40;44.00
30148;DHT22;16960;49.404;8.248;2023-07-20T12:05:24;24.40;44.00
30148;DHT22;16960;49.404;8.248;2023-07-20T12:07:52;24.40;44.00
30148;DHT22;16960;49.404;8.248;2023-07-20T12:10:24;24.40;44.00
30148;DHT22;16960;49.404;8.248;2023-07-20T12:12:52;24.40;44.00
30148;DHT22;16960;49.404;8.248;2023-07-20T12:15:22;24.40;44.00
30148;DHT22;16960;49.404;8.248;2023-07-20T12:17:51;24.40;44.00
30148;DHT22;16960;49.404;8.248;2023-07-20T12:20:25;24.40;44.00
30148;DHT22;16960;49.404;8.248;2023-07-20T12:22:55;24.40;43.90
30148;DHT22;16960;49.404;8.248;2023-07-20T12:25:22;24.40;44.00
30148;DHT22;16960;49.404;8.248;2023-07-20T12:27:49;24.40;43.90
30148;DHT22;16960;49.404;8.248;2023-07-20T12:30:16;24.40;43.90
30148;DHT22;16960;49.404;8.248;2023-07-20T12:32:45;24.40;43.90
30148;DHT22;16960;49.404;8.248;2023-07-20T12:35:12;24.40;43.90
30148;DHT22;16960;49.404;8.248;2023-07-20T12:37:40;24.40;44.00
30148;DHT22;16960;49.404;8.248;2023-07-20T12:40:08;24.50;44.00
30148;DHT22;16960;49.404;8.248;2023-07-20T12:42:36;24.50;44.00
30148;DHT22;16960;49.404;8.248;2023-07-20T12:45:05;24.50;44.00
30148;DHT22;16960;49.404;8.248;2023-07-20T12:47:32;24.50;44.00
30148;DHT22;16960;49.404;8.248;2023-07-20T12:50:01;24.50;44.00
30148;DHT22;16960;49.404;8.248;2023-07-20T12:52:31;24.50;43.90
30148;DHT22;16960;49.404;8.248;2023-07-20T12:54:58;24.50;43.90
30148;DHT22;16960;49.404;8.248;2023-07-20T12:57:26;24.50;43.90
30148;DHT22;16960;49.404;8.248;2023-07-20T12:59:53;24.60;44.00
30148;DHT22;16960;49.404;8.248;2023-07-20T13:02:20;24.60;44.00
30148;DHT22;16960;49.404;8.248;2023-07-20T13:04:47;24.60;44.00
30148;DHT22;16960;49.404;8.248;2023-07-20T13:07:15;24.60;44.20
30148;DHT22;16960;49.404;8.248;2023-07-20T13:09:42;24.60;44.20
30148;DHT22;16960;49.404;8.248;2023-07-20T13:12:09;24.70;44.20
30148;DHT22;16960;49.404;8.248;2023-07-20T13:14:36;24.70;44.10
30148;DHT22;16960;49.404;8.248;2023-07-20T13:17:03;24.70;44.10
30148;DHT22;16960;49.404;8.248;2023-07-20T13:19:30;24.70;44.10
30148;DHT22;16960;49.404;8.248;2023-07-20T13:21:57;24.70;44.00
30148;DHT22;16960;49.404;8.248;2023-07-20T13:24:25;24.70;44.00
30148;DHT22;16960;49.404;8.248;2023-07-20T13:26:52;24.70;44.00
30148;DHT22;16960;49.404;8.248;2023-07-20T13:29:19;24.70;43.90
30148;DHT22;16960;49.404;8.248;2023-07-20T13:31:46;24.70;44.00
30148;DHT22;16960;49.404;8.248;2023-07-20T13:34:13;24.70;44.00
30148;DHT22;16960;49.404;8.248;2023-07-20T13:36:40;24.80;43.90
30148;DHT22;16960;49.404;8.248;2023-07-20T13:39:07;24.80;43.90
30148;DHT22;16960;49.404;8.248;2023-07-20T13:41:35;24.80;43.90
30148;DHT22;16960;49.404;8.248;2023-07-20T13:44:03;24.80;43.90
30148;DHT22;16960;49.404;8.248;2023-07-20T13:46:30;24.80;43.90
30148;DHT22;16960;49.404;8.248;2023-07-20T13:48:57;24.80;43.90
30148;DHT22;16960;49.404;8.248;2023-07-20T13:51:23;24.90;43.90
30148;DHT22;16960;49.404;8.248;2023-07-20T13:53:50;24.80;43.80
30148;DHT22;16960;49.404;8.248;2023-07-20T13:56:17;24.90;43.90
30148;DHT22;16960;49.404;8.248;2023-07-20T13:58:46;24.90;43.90
30148;DHT22;16960;49.404;8.248;2023-07-20T14:01:12;24.90;43.90
30148;DHT22;16960;49.404;8.248;2023-07-20T14:03:39;24.90;43.90
30148;DHT22;16960;49.404;8.248;2023-07-20T14:06:06;24.90;43.90
30148;DHT22;16960;49.404;8.248;2023-07-20T14:08:33;24.90;43.90
30148;DHT22;16960;49.404;8.248;2023-07-20T14:11:00;24.90;43.80
30148;DHT22;16960;49.404;8.248;2023-07-20T14:13:27;25.00;43.90
30148;DHT22;16960;49.404;8.248;2023-07-20T14:15:55;25.00;43.80
30148;DHT22;16960;49.404;8.248;2023-07-20T14:18:22;25.00;43.80
30148;DHT22;16960;49.404;8.248;2023-07-20T14:20:49;25.00;43.80
30148;DHT22;16960;49.404;8.248;2023-07-20T14:23:16;25.00;43.80
30148;DHT22;16960;49.404;8.248;2023-07-20T14:25:43;25.00;43.90
30148;DHT22;16960;49.404;8.248;2023-07-20T14:28:10;25.00;44.10
30148;DHT22;16960;49.404;8.248;2023-07-20T14:30:37;25.00;44.20
30148;DHT22;16960;49.404;8.248;2023-07-20T14:33:05;25.10;44.20
30148;DHT22;16960;49.404;8.248;2023-07-20T14:35:33;25.10;44.20
30148;DHT22;16960;49.404;8.248;2023-07-20T14:38:00;25.10;44.10
30148;DHT22;16960;49.404;8.248;2023-07-20T14:40:27;25.10;44.00
30148;DHT22;16960;49.404;8.248;2023-07-20T14:42:55;25.10;43.90
30148;DHT22;16960;49.404;8.248;2023-07-20T14:45:22;25.20;43.90
30148;DHT22;16960;49.404;8.248;2023-07-20T14:47:49;25.20;43.80
30148;DHT22;16960;49.404;8.248;2023-07-20T14:50:20;25.20;43.80
30148;DHT22;16960;49.404;8.248;2023-07-20T14:52:47;25.20;43.70
30148;DHT22;16960;49.404;8.248;2023-07-20T14:55:15;25.20;43.70
30148;DHT22;16960;49.404;8.248;2023-07-20T14:57:42;25.20;43.60
30148;DHT22;16960;49.404;8.248;2023-07-20T15:00:09;25.20;43.60
30148;DHT22;16960;49.404;8.248;2023-07-20T15:02:37;25.20;43.60
30148;DHT22;16960;49.404;8.248;2023-07-20T15:05:06;25.20;43.60
30148;DHT22;16960;49.404;8.248;2023-07-20T15:07:34;25.30;43.50
30148;DHT22;16960;49.404;8.248;2023-07-20T15:10:01;25.20;43.50
30148;DHT22;16960;49.404;8.248;2023-07-20T15:12:29;25.30;43.50
30148;DHT22;16960;49.404;8.248;2023-07-20T15:15:04;25.30;43.50
30148;DHT22;16960;49.404;8.248;2023-07-20T15:17:32;25.30;43.50
30148;DHT22;16960;49.404;8.248;2023-07-20T15:19:59;25.30;43.50
30148;DHT22;16960;49.404;8.248;2023-07-20T15:22:26;25.30;43.40
30148;DHT22;16960;49.404;8.248;2023-07-20T15:24:54;25.30;43.40
30148;DHT22;16960;49.404;8.248;2023-07-20T15:27:21;25.30;43.50
30148;DHT22;16960;49.404;8.248;2023-07-20T15:29:48;25.30;43.40
30148;DHT22;16960;49.404;8.248;2023-07-20T15:32:15;25.30;43.40
30148;DHT22;16960;49.404;8.248;2023-07-20T15:34:42;25.30;43.40
30148;DHT22;16960;49.404;8.248;2023-07-20T15:37:09;25.30;43.40